sensor_id;sensor_type;location;lat;lon;timestamp;pressure;altitude;pressure_sealevel;temperature;humidity
18167;BME280;9208;42.688;23.404;2023-03-14T00:03:35;95747.78;;;5.32;72.39
18167;BME280;9208;42.688;23.404;2023-03-14T00:06:03;95735.63;;;5.24;72.96
18167;BME280;9208;42.688;23.404;2023-03-14T00:08:28;95730.06;;;5.28;73.40
18167;BME280;9208;42.688;23.404;2023-03-14T00:10:53;95725.94;;;5.23;73.01
18167;BME280;9208;42.688;23.404;2023-03-14T00:13:19;95720.31;;;5.30;73.32
18167;BME280;9208;42.688;23.404;2023-03-14T00:15:44;95713.56;;;5.22;73.67
18167;BME280;9208;42.688;23.404;2023-03-14T00:18:10;95708.44;;;5.24;73.89
18167;BME280;9208;42.688;23.404;2023-03-14T00:20:35;95709.31;;;5.21;74.23
18167;BME280;9208;42.688;23.404;2023-03-14T00:23:00;95699.72;;;5.29;73.95
18167;BME280;9208;42.688;23.404;2023-03-14T00:25:27;95688.00;;;5.20;74.18
18167;BME280;9208;42.688;23.404;2023-03-14T00:27:53;95689.97;;;5.19;74.06
18167;BME280;9208;42.688;23.404;2023-03-14T00:30:18;95688.09;;;5.16;74.25
18167;BME280;9208;42.688;23.404;2023-03-14T00:32:44;95679.97;;;5.16;74.39
18167;BME280;9208;42.688;23.404;2023-03-14T00:35:10;95666.28;;;5.07;74.68
18167;BME280;9208;42.688;23.404;2023-03-14T00:37:35;95664.75;;;5.06;74.78
18167;BME280;9208;42.688;23.404;2023-03-14T00:40:01;95669.34;;;4.97;75.03
18167;BME280;9208;42.688;23.404;2023-03-14T00:42:26;95663.91;;;4.84;75.62
18167;BME280;9208;42.688;23.404;2023-03-14T00:44:52;95655.63;;;4.75;76.07
18167;BME280;9208;42.688;23.404;2023-03-14T00:47:18;95650.03;;;4.70;75.88
18167;BME280;9208;42.688;23.404;2023-03-14T00:49:43;95649.25;;;4.69;76.28
18167;BME280;9208;42.688;23.404;2023-03-14T00:52:09;95649.25;;;4.69;76.16
18167;BME280;9208;42.688;23.404;2023-03-14T00:54:34;95640.75;;;4.55;77.75
18167;BME280;9208;42.688;23.404;2023-03-14T00:56:59;95633.59;;;4.48;77.89
18167;BME280;9208;42.688;23.404;2023-03-14T00:59:25;95629.34;;;4.47;77.80
18167;BME280;9208;42.688;23.404;2023-03-14T01:01:50;95621.44;;;4.53;77.81
18167;BME280;9208;42.688;23.404;2023-03-14T01:04:16;95622.72;;;4.48;78.32
18167;BME280;9208;42.688;23.404;2023-03-14T01:06:41;95623.06;;;4.50;78.07
18167;BME280;9208;42.688;23.404;2023-03-14T01:09:06;95616.09;;;4.49;78.46
18167;BME280;9208;42.688;23.404;2023-03-14T01:11:34;95604.81;;;4.51;78.79
18167;BME280;9208;42.688;23.404;2023-03-14T01:14:00;95601.13;;;4.57;78.25
18167;BME280;9208;42.688;23.404;2023-03-14T01:16:28;95607.09;;;4.65;77.92
18167;BME280;9208;42.688;23.404;2023-03-14T01:18:54;95611.78;;;4.64;78.09
18167;BME280;9208;42.688;23.404;2023-03-14T01:23:48;95587.47;;;4.61;77.81
18167;BME280;9208;42.688;23.404;2023-03-14T01:26:16;95587.97;;;4.56;78.53
18167;BME280;9208;42.688;23.404;2023-03-14T01:28:44;95587.13;;;4.46;78.67
18167;BME280;9208;42.688;23.404;2023-03-14T01:31:10;95583.88;;;4.39;79.21
18167;BME280;9208;42.688;23.404;2023-03-14T01:33:36;95575.63;;;4.30;79.57
18167;BME280;9208;42.688;23.404;2023-03-14T01:36:03;95567.25;;;4.24;80.06
18167;BME280;9208;42.688;23.404;2023-03-14T01:38:29;95573.00;;;4.26;79.71
18167;BME280;9208;42.688;23.404;2023-03-14T01:40:55;95575.81;;;4.23;79.82
18167;BME280;9208;42.688;23.404;2023-03-14T01:43:21;95565.94;;;4.16;79.97
18167;BME280;9208;42.688;23.404;2023-03-14T01:46:16;95564.53;;;4.12;79.57
18167;BME280;9208;42.688;23.404;2023-03-14T01:51:16;95559.19;;;4.08;79.64
18167;BME280;9208;42.688;23.404;2023-03-14T01:53:44;95559.97;;;4.09;79.59
18167;BME280;9208;42.688;23.404;2023-03-14T01:56:14;95552.38;;;4.16;78.74
18167;BME280;9208;42.688;23.404;2023-03-14T02:16:35;95550.75;;;4.31;79.05
18167;BME280;9208;42.688;23.404;2023-03-14T02:22:29;95550.22;;;4.49;78.54
18167;BME280;9208;42.688;23.404;2023-03-14T05:21:34;95448.53;;;3.53;89.74
18167;BME280;9208;42.688;23.404;2023-03-14T05:24:00;95454.38;;;3.52;89.99
18167;BME280;9208;42.688;23.404;2023-03-14T05:26:25;95450.91;;;3.51;90.13
18167;BME280;9208;42.688;23.404;2023-03-14T05:28:51;95452.44;;;3.52;90.36
18167;BME280;9208;42.688;23.404;2023-03-14T05:31:16;95435.81;;;3.50;90.53
18167;BME280;9208;42.688;23.404;2023-03-14T05:33:42;95443.53;;;3.52;90.70
18167;BME280;9208;42.688;23.404;2023-03-14T05:36:07;95442.22;;;3.44;91.42
18167;BME280;9208;42.688;23.404;2023-03-14T05:38:33;95448.09;;;3.42;91.24
18167;BME280;9208;42.688;23.404;2023-03-14T05:40:58;95452.84;;;3.51;91.27
18167;BME280;9208;42.688;23.404;2023-03-14T05:43:26;95454.91;;;3.59;91.25
18167;BME280;9208;42.688;23.404;2023-03-14T05:45:52;95453.81;;;3.57;91.79
18167;BME280;9208;42.688;23.404;2023-03-14T05:48:17;95462.75;;;3.70;91.33
18167;BME280;9208;42.688;23.404;2023-03-14T05:50:43;95474.78;;;3.81;90.61
18167;BME280;9208;42.688;23.404;2023-03-14T05:53:09;95467.41;;;3.82;90.56
18167;BME280;9208;42.688;23.404;2023-03-14T05:55:34;95474.69;;;3.85;90.25
18167;BME280;9208;42.688;23.404;2023-03-14T05:58:00;95481.41;;;3.93;89.78
18167;BME280;9208;42.688;23.404;2023-03-14T06:00:25;95480.66;;;3.92;89.44
18167;BME280;9208;42.688;23.404;2023-03-14T06:02:51;95478.50;;;3.87;89.27
18167;BME280;9208;42.688;23.404;2023-03-14T06:05:16;95482.72;;;4.01;88.92
18167;BME280;9208;42.688;23.404;2023-03-14T06:07:42;95482.81;;;4.10;88.57
18167;BME280;9208;42.688;23.404;2023-03-14T06:10:08;95483.78;;;4.03;89.87
18167;BME280;9208;42.688;23.404;2023-03-14T06:12:33;95475.44;;;4.10;90.34
18167;BME280;9208;42.688;23.404;2023-03-14T06:14:59;95481.84;;;4.16;90.67
18167;BME280;9208;42.688;23.404;2023-03-14T06:17:24;95480.53;;;4.21;90.02
18167;BME280;9208;42.688;23.404;2023-03-14T06:19:49;95475.66;;;4.28;89.95
18167;BME280;9208;42.688;23.404;2023-03-14T06:22:15;95471.19;;;4.34;89.93
18167;BME280;9208;42.688;23.404;2023-03-14T06:24:43;95477.25;;;4.38;90.01
18167;BME280;9208;42.688;23.404;2023-03-14T06:27:08;95482.56;;;4.42;91.09
18167;BME280;9208;42.688;23.404;2023-03-14T06:29:34;95481.50;;;4.39;90.90
18167;BME280;9208;42.688;23.404;2023-03-14T06:31:59;95486.38;;;4.32;90.85
18167;BME280;9208;42.688;23.404;2023-03-14T06:34:25;95491.47;;;4.42;90.26
18167;BME280;9208;42.688;23.404;2023-03-14T06:36:50;95493.22;;;4.49;89.95
18167;BME280;9208;42.688;23.404;2023-03-14T06:39:16;95496.66;;;4.62;90.02
18167;BME280;9208;42.688;23.404;2023-03-14T06:41:41;95503.47;;;4.66;88.79
18167;BME280;9208;42.688;23.404;2023-03-14T06:44:07;95492.53;;;4.57;87.97
18167;BME280;9208;42.688;23.404;2023-03-14T06:46:32;95506.50;;;4.81;86.64
18167;BME280;9208;42.688;23.404;2023-03-14T06:48:57;95504.00;;;4.86;86.31
18167;BME280;9208;42.688;23.404;2023-03-14T06:51:23;95504.81;;;4.96;85.45
18167;BME280;9208;42.688;23.404;2023-03-14T06:53:48;95508.44;;;4.93;85.10
18167;BME280;9208;42.688;23.404;2023-03-14T06:56:14;95504.00;;;4.86;86.28
18167;BME280;9208;42.688;23.404;2023-03-14T06:58:39;95491.13;;;4.99;85.88
18167;BME280;9208;42.688;23.404;2023-03-14T07:01:05;95493.28;;;5.04;86.09
18167;BME280;9208;42.688;23.404;2023-03-14T07:03:31;95500.31;;;5.14;85.09
18167;BME280;9208;42.688;23.404;2023-03-14T07:05:56;95500.06;;;5.21;85.13
18167;BME280;9208;42.688;23.404;2023-03-14T07:08:22;95497.78;;;5.20;84.46
18167;BME280;9208;42.688;23.404;2023-03-14T07:10:47;95480.41;;;5.17;84.55
18167;BME280;9208;42.688;23.404;2023-03-14T07:13:13;95483.25;;;5.35;84.10
18167;BME280;9208;42.688;23.404;2023-03-14T07:15:38;95490.25;;;5.45;84.24
18167;BME280;9208;42.688;23.404;2023-03-14T07:18:03;95477.75;;;5.48;83.39
18167;BME280;9208;42.688;23.404;2023-03-14T07:20:29;95492.31;;;5.63;83.25
18167;BME280;9208;42.688;23.404;2023-03-14T07:22:57;95502.25;;;5.78;81.47
18167;BME280;9208;42.688;23.404;2023-03-14T07:25:25;95510.91;;;5.86;80.01
18167;BME280;9208;42.688;23.404;2023-03-14T07:27:50;95522.44;;;5.90;78.60
18167;BME280;9208;42.688;23.404;2023-03-14T07:30:15;95537.03;;;6.05;77.28
18167;BME280;9208;42.688;23.404;2023-03-14T07:32:44;95531.72;;;6.01;77.09
18167;BME280;9208;42.688;23.404;2023-03-14T07:35:09;95532.78;;;6.04;77.57
18167;BME280;9208;42.688;23.404;2023-03-14T07:37:35;95524.81;;;6.09;77.67
18167;BME280;9208;42.688;23.404;2023-03-14T07:40:00;95524.72;;;6.22;78.43
18167;BME280;9208;42.688;23.404;2023-03-14T07:42:26;95530.06;;;6.34;76.68
18167;BME280;9208;42.688;23.404;2023-03-14T07:44:51;95532.84;;;6.43;76.50
18167;BME280;9208;42.688;23.404;2023-03-14T07:47:16;95536.22;;;6.56;75.95
18167;BME280;9208;42.688;23.404;2023-03-14T07:49:42;95527.47;;;6.70;75.42
18167;BME280;9208;42.688;23.404;2023-03-14T07:52:07;95536.25;;;6.74;75.06
18167;BME280;9208;42.688;23.404;2023-03-14T07:54:33;95541.72;;;6.83;73.36
18167;BME280;9208;42.688;23.404;2023-03-14T07:57:01;95555.94;;;6.87;72.79
18167;BME280;9208;42.688;23.404;2023-03-14T07:59:27;95560.53;;;6.99;72.46
18167;BME280;9208;42.688;23.404;2023-03-14T08:01:53;95558.69;;;6.96;72.46
18167;BME280;9208;42.688;23.404;2023-03-14T08:04:18;95550.66;;;6.93;72.57
18167;BME280;9208;42.688;23.404;2023-03-14T08:06:43;95555.97;;;7.05;71.90
18167;BME280;9208;42.688;23.404;2023-03-14T08:09:09;95558.41;;;7.03;72.07
18167;BME280;9208;42.688;23.404;2023-03-14T08:11:35;95555.25;;;7.05;71.94
18167;BME280;9208;42.688;23.404;2023-03-14T08:14:04;95554.19;;;7.11;71.89
18167;BME280;9208;42.688;23.404;2023-03-14T08:16:29;95576.31;;;7.31;70.20
18167;BME280;9208;42.688;23.404;2023-03-14T08:18:55;95574.53;;;7.37;71.05
18167;BME280;9208;42.688;23.404;2023-03-14T08:21:21;95569.81;;;7.47;70.47
18167;BME280;9208;42.688;23.404;2023-03-14T08:23:46;95559.34;;;7.45;70.81
18167;BME280;9208;42.688;23.404;2023-03-14T08:26:12;95562.56;;;7.62;70.67
18167;BME280;9208;42.688;23.404;2023-03-14T08:28:37;95564.06;;;7.72;70.30
18167;BME280;9208;42.688;23.404;2023-03-14T08:31:03;95564.50;;;7.70;70.31
18167;BME280;9208;42.688;23.404;2023-03-14T08:33:29;95569.06;;;7.82;69.53
18167;BME280;9208;42.688;23.404;2023-03-14T08:35:56;95570.84;;;7.94;69.51
18167;BME280;9208;42.688;23.404;2023-03-14T08:38:22;95567.22;;;7.88;69.44
18167;BME280;9208;42.688;23.404;2023-03-14T08:40:48;95559.16;;;8.03;69.38
18167;BME280;9208;42.688;23.404;2023-03-14T08:43:14;95561.59;;;8.01;68.96
18167;BME280;9208;42.688;23.404;2023-03-14T08:45:39;95556.53;;;8.17;68.71
18167;BME280;9208;42.688;23.404;2023-03-14T08:48:05;95549.28;;;8.23;68.59
18167;BME280;9208;42.688;23.404;2023-03-14T08:50:30;95552.28;;;8.34;68.83
18167;BME280;9208;42.688;23.404;2023-03-14T08:52:56;95554.66;;;8.50;68.51
18167;BME280;9208;42.688;23.404;2023-03-14T08:55:25;95550.22;;;8.62;68.45
18167;BME280;9208;42.688;23.404;2023-03-14T08:57:52;95545.41;;;8.80;68.15
18167;BME280;9208;42.688;23.404;2023-03-14T09:00:18;95544.44;;;8.92;67.37
18167;BME280;9208;42.688;23.404;2023-03-14T09:02:44;95550.44;;;9.05;67.38
18167;BME280;9208;42.688;23.404;2023-03-14T09:05:10;95560.09;;;9.15;65.67
18167;BME280;9208;42.688;23.404;2023-03-14T09:07:37;95564.56;;;9.27;65.29
18167;BME280;9208;42.688;23.404;2023-03-14T09:10:03;95561.78;;;9.36;65.30
18167;BME280;9208;42.688;23.404;2023-03-14T09:12:28;95563.22;;;9.46;65.58
18167;BME280;9208;42.688;23.404;2023-03-14T09:14:54;95548.72;;;9.55;65.59
18167;BME280;9208;42.688;23.404;2023-03-14T09:17:19;95550.81;;;9.74;65.37
18167;BME280;9208;42.688;23.404;2023-03-14T09:19:45;95540.81;;;9.86;65.31
18167;BME280;9208;42.688;23.404;2023-03-14T09:22:10;95541.72;;;10.06;64.42
18167;BME280;9208;42.688;23.404;2023-03-14T09:24:36;95558.63;;;10.19;63.36
18167;BME280;9208;42.688;23.404;2023-03-14T09:27:01;95553.56;;;10.27;63.19
18167;BME280;9208;42.688;23.404;2023-03-14T09:29:27;95548.16;;;10.32;63.65
18167;BME280;9208;42.688;23.404;2023-03-14T09:31:52;95550.53;;;10.40;63.26
18167;BME280;9208;42.688;23.404;2023-03-14T09:34:18;95531.91;;;10.44;63.05
18167;BME280;9208;42.688;23.404;2023-03-14T09:36:44;95547.38;;;10.61;63.28
18167;BME280;9208;42.688;23.404;2023-03-14T09:39:10;95549.53;;;10.72;62.71
18167;BME280;9208;42.688;23.404;2023-03-14T09:41:51;95546.44;;;10.64;61.84
18167;BME280;9208;42.688;23.404;2023-03-14T09:44:29;95535.47;;;10.50;63.43
18167;BME280;9208;42.688;23.404;2023-03-14T09:47:05;95530.53;;;10.68;62.58
18167;BME280;9208;42.688;23.404;2023-03-14T09:49:37;95511.81;;;10.67;63.04
18167;BME280;9208;42.688;23.404;2023-03-14T09:57:11;95506.78;;;11.00;62.08
18167;BME280;9208;42.688;23.404;2023-03-14T09:59:38;95508.38;;;11.06;61.66
18167;BME280;9208;42.688;23.404;2023-03-14T10:04:42;95494.47;;;11.30;61.85
18167;BME280;9208;42.688;23.404;2023-03-14T10:07:17;95498.56;;;11.40;61.05
18167;BME280;9208;42.688;23.404;2023-03-14T10:09:47;95499.13;;;11.44;61.03
18167;BME280;9208;42.688;23.404;2023-03-14T10:12:13;95501.16;;;11.49;60.40
18167;BME280;9208;42.688;23.404;2023-03-14T10:14:51;95495.88;;;11.65;60.37
18167;BME280;9208;42.688;23.404;2023-03-14T10:17:18;95504.13;;;11.65;59.18
18167;BME280;9208;42.688;23.404;2023-03-14T10:22:18;95496.81;;;11.82;59.94
18167;BME280;9208;42.688;23.404;2023-03-14T10:24:53;95486.44;;;11.92;59.70
18167;BME280;9208;42.688;23.404;2023-03-14T10:27:22;95476.78;;;12.02;59.76
18167;BME280;9208;42.688;23.404;2023-03-14T10:29:56;95471.13;;;12.11;59.46
18167;BME280;9208;42.688;23.404;2023-03-14T10:32:29;95469.44;;;12.19;59.09
18167;BME280;9208;42.688;23.404;2023-03-14T10:35:08;95465.28;;;12.29;58.75
18167;BME280;9208;42.688;23.404;2023-03-14T10:38:03;95464.75;;;12.25;58.10
18167;BME280;9208;42.688;23.404;2023-03-14T10:40:34;95461.56;;;12.32;58.06
18167;BME280;9208;42.688;23.404;2023-03-14T10:43:05;95451.88;;;12.42;57.80
18167;BME280;9208;42.688;23.404;2023-03-14T10:48:16;95454.25;;;12.60;57.03
18167;BME280;9208;42.688;23.404;2023-03-14T10:50:55;95438.53;;;12.66;57.60
18167;BME280;9208;42.688;23.404;2023-03-14T10:53:21;95438.63;;;12.82;56.66
18167;BME280;9208;42.688;23.404;2023-03-14T10:55:46;95428.38;;;12.83;56.67
18167;BME280;9208;42.688;23.404;2023-03-14T10:58:29;95425.66;;;12.88;56.86
18167;BME280;9208;42.688;23.404;2023-03-14T11:01:04;95421.50;;;13.04;57.10
18167;BME280;9208;42.688;23.404;2023-03-14T11:03:32;95404.78;;;13.13;56.75
18167;BME280;9208;42.688;23.404;2023-03-14T11:06:10;95416.34;;;13.33;55.28
18167;BME280;9208;42.688;23.404;2023-03-14T11:08:47;95423.09;;;13.32;54.99
18167;BME280;9208;42.688;23.404;2023-03-14T11:11:27;95418.13;;;13.42;54.61
18167;BME280;9208;42.688;23.404;2023-03-14T11:16:50;95404.16;;;13.56;54.87
18167;BME280;9208;42.688;23.404;2023-03-14T11:19:32;95403.88;;;13.54;53.40
18167;BME280;9208;42.688;23.404;2023-03-14T11:22:07;95405.16;;;13.70;53.49
18167;BME280;9208;42.688;23.404;2023-03-14T11:27:42;95402.44;;;13.92;52.71
18167;BME280;9208;42.688;23.404;2023-03-14T11:38:56;95381.88;;;14.37;52.09
18167;BME280;9208;42.688;23.404;2023-03-14T11:41:30;95366.56;;;14.47;52.58
18167;BME280;9208;42.688;23.404;2023-03-14T11:43:59;95382.84;;;14.61;50.94
18167;BME280;9208;42.688;23.404;2023-03-14T11:46:36;95383.06;;;14.69;50.44
18167;BME280;9208;42.688;23.404;2023-03-14T11:49:03;95413.91;;;14.73;47.09
18167;BME280;9208;42.688;23.404;2023-03-14T11:51:44;95420.19;;;14.79;46.31
18167;BME280;9208;42.688;23.404;2023-03-14T11:57:01;95410.66;;;14.74;45.12
18167;BME280;9208;42.688;23.404;2023-03-14T11:59:52;95416.13;;;14.91;44.31
18167;BME280;9208;42.688;23.404;2023-03-14T12:05:27;95405.78;;;15.02;43.81
18167;BME280;9208;42.688;23.404;2023-03-14T12:10:58;95387.94;;;15.09;43.83
18167;BME280;9208;42.688;23.404;2023-03-14T12:13:29;95372.34;;;15.17;43.92
18167;BME280;9208;42.688;23.404;2023-03-14T12:15:59;95373.59;;;15.21;42.98
18167;BME280;9208;42.688;23.404;2023-03-14T12:18:28;95373.59;;;15.21;42.63
18167;BME280;9208;42.688;23.404;2023-03-14T12:21:06;95368.28;;;15.29;43.13
18167;BME280;9208;42.688;23.404;2023-03-14T12:23:41;95359.72;;;15.32;42.39
18167;BME280;9208;42.688;23.404;2023-03-14T12:32:26;95348.84;;;15.51;41.61
18167;BME280;9208;42.688;23.404;2023-03-14T12:34:51;95348.31;;;15.52;41.90
18167;BME280;9208;42.688;23.404;2023-03-14T12:37:25;95334.97;;;15.56;42.49
18167;BME280;9208;42.688;23.404;2023-03-14T12:40:01;95331.22;;;15.59;41.10
18167;BME280;9208;42.688;23.404;2023-03-14T12:42:53;95330.66;;;15.66;41.20
18167;BME280;9208;42.688;23.404;2023-03-14T12:45:30;95334.88;;;15.73;41.48
18167;BME280;9208;42.688;23.404;2023-03-14T12:48:17;95348.09;;;15.85;39.91
18167;BME280;9208;42.688;23.404;2023-03-14T12:50:54;95337.03;;;15.85;39.67
18167;BME280;9208;42.688;23.404;2023-03-14T12:55:51;95333.38;;;16.01;38.98
18167;BME280;9208;42.688;23.404;2023-03-14T12:58:28;95345.34;;;16.15;37.22
18167;BME280;9208;42.688;23.404;2023-03-14T13:00:59;95343.47;;;15.99;36.49
18167;BME280;9208;42.688;23.404;2023-03-14T13:03:37;95341.16;;;16.03;36.43
18167;BME280;9208;42.688;23.404;2023-03-14T13:06:04;95330.09;;;16.03;37.12
18167;BME280;9208;42.688;23.404;2023-03-14T13:08:41;95328.06;;;16.09;35.70
18167;BME280;9208;42.688;23.404;2023-03-14T13:11:15;95322.59;;;15.98;36.00
18167;BME280;9208;42.688;23.404;2023-03-14T13:13:45;95324.28;;;16.06;34.65
18167;BME280;9208;42.688;23.404;2023-03-14T13:16:21;95318.25;;;16.08;35.79
18167;BME280;9208;42.688;23.404;2023-03-14T13:18:51;95293.53;;;16.15;36.71
18167;BME280;9208;42.688;23.404;2023-03-14T13:21:26;95297.50;;;16.20;36.13
18167;BME280;9208;42.688;23.404;2023-03-14T13:24:03;95284.31;;;16.31;36.13
18167;BME280;9208;42.688;23.404;2023-03-14T13:26:35;95305.44;;;16.34;33.83
18167;BME280;9208;42.688;23.404;2023-03-14T13:29:23;95282.97;;;16.43;35.81
18167;BME280;9208;42.688;23.404;2023-03-14T13:31:58;95268.31;;;16.48;35.27
18167;BME280;9208;42.688;23.404;2023-03-14T13:34:29;95276.56;;;16.54;35.42
18167;BME280;9208;42.688;23.404;2023-03-14T13:36:55;95269.66;;;16.60;35.09
18167;BME280;9208;42.688;23.404;2023-03-14T13:39:22;95262.81;;;16.67;34.73
18167;BME280;9208;42.688;23.404;2023-03-14T13:41:52;95271.66;;;16.65;33.42
18167;BME280;9208;42.688;23.404;2023-03-14T13:44:25;95268.13;;;16.65;33.94
18167;BME280;9208;42.688;23.404;2023-03-14T13:46:52;95249.72;;;16.67;34.78
18167;BME280;9208;42.688;23.404;2023-03-14T13:49:23;95232.28;;;16.72;34.67
18167;BME280;9208;42.688;23.404;2023-03-14T13:51:54;95238.22;;;16.82;34.19
18167;BME280;9208;42.688;23.404;2023-03-14T13:54:21;95241.44;;;16.86;33.77
18167;BME280;9208;42.688;23.404;2023-03-14T13:56:47;95234.63;;;16.87;34.23
18167;BME280;9208;42.688;23.404;2023-03-14T13:59:28;95242.69;;;16.85;33.17
18167;BME280;9208;42.688;23.404;2023-03-14T14:01:54;95223.25;;;16.90;34.34
18167;BME280;9208;42.688;23.404;2023-03-14T14:04:23;95217.38;;;16.94;33.95
18167;BME280;9208;42.688;23.404;2023-03-14T14:06:54;95213.97;;;16.88;33.55
18167;BME280;9208;42.688;23.404;2023-03-14T14:09:30;95201.22;;;16.98;33.17
18167;BME280;9208;42.688;23.404;2023-03-14T14:14:35;95196.31;;;16.91;32.94
18167;BME280;9208;42.688;23.404;2023-03-14T14:17:05;95207.16;;;16.89;32.63
18167;BME280;9208;42.688;23.404;2023-03-14T14:19:34;95200.34;;;16.90;32.69
18167;BME280;9208;42.688;23.404;2023-03-14T14:22:00;95188.22;;;16.93;32.92
18167;BME280;9208;42.688;23.404;2023-03-14T14:24:30;95185.28;;;17.04;32.66
18167;BME280;9208;42.688;23.404;2023-03-14T14:27:02;95174.13;;;17.09;32.96
18167;BME280;9208;42.688;23.404;2023-03-14T14:29:33;95172.03;;;17.15;32.72
18167;BME280;9208;42.688;23.404;2023-03-14T14:34:44;95161.47;;;17.14;33.05
18167;BME280;9208;42.688;23.404;2023-03-14T14:37:19;95144.41;;;17.10;32.99
18167;BME280;9208;42.688;23.404;2023-03-14T14:39:45;95148.59;;;17.16;33.16
18167;BME280;9208;42.688;23.404;2023-03-14T14:42:15;95153.47;;;17.10;33.38
18167;BME280;9208;42.688;23.404;2023-03-14T14:44:42;95146.97;;;17.08;33.03
18167;BME280;9208;42.688;23.404;2023-03-14T14:47:13;95128.63;;;17.05;33.55
18167;BME280;9208;42.688;23.404;2023-03-14T14:49:39;95128.50;;;16.97;33.53
18167;BME280;9208;42.688;23.404;2023-03-14T14:52:10;95127.78;;;17.10;33.60
18167;BME280;9208;42.688;23.404;2023-03-14T14:54:51;95122.47;;;17.12;33.89
18167;BME280;9208;42.688;23.404;2023-03-14T14:57:24;95126.75;;;17.13;33.45
18167;BME280;9208;42.688;23.404;2023-03-14T14:59:50;95125.50;;;16.95;33.31
18167;BME280;9208;42.688;23.404;2023-03-14T15:02:27;95126.13;;;16.88;33.67
18167;BME280;9208;42.688;23.404;2023-03-14T15:04:53;95120.06;;;16.90;33.47
18167;BME280;9208;42.688;23.404;2023-03-14T15:07:18;95118.84;;;16.85;32.99
18167;BME280;9208;42.688;23.404;2023-03-14T15:09:44;95106.94;;;16.90;33.74
18167;BME280;9208;42.688;23.404;2023-03-14T15:12:10;95117.28;;;16.90;32.41
18167;BME280;9208;42.688;23.404;2023-03-14T15:14:35;95111.31;;;16.86;33.27
18167;BME280;9208;42.688;23.404;2023-03-14T15:17:01;95098.19;;;16.86;33.23
18167;BME280;9208;42.688;23.404;2023-03-14T15:19:27;95097.34;;;16.78;33.33
18167;BME280;9208;42.688;23.404;2023-03-14T15:21:55;95091.25;;;16.80;33.45
18167;BME280;9208;42.688;23.404;2023-03-14T15:24:21;95085.81;;;16.74;33.40
18167;BME280;9208;42.688;23.404;2023-03-14T15:26:47;95082.94;;;16.80;33.53
18167;BME280;9208;42.688;23.404;2023-03-14T15:29:12;95071.69;;;16.59;34.04
18167;BME280;9208;42.688;23.404;2023-03-14T15:31:39;95067.34;;;16.64;34.31
18167;BME280;9208;42.688;23.404;2023-03-14T15:34:04;95059.66;;;16.38;34.67
18167;BME280;9208;42.688;23.404;2023-03-14T15:36:34;95055.78;;;16.47;34.58
18167;BME280;9208;42.688;23.404;2023-03-14T15:39:00;95058.34;;;16.45;34.62
18167;BME280;9208;42.688;23.404;2023-03-14T15:41:27;95050.84;;;16.40;34.97
18167;BME280;9208;42.688;23.404;2023-03-14T15:43:53;95056.09;;;16.43;34.54
18167;BME280;9208;42.688;23.404;2023-03-14T15:46:19;95044.56;;;16.39;34.78
18167;BME280;9208;42.688;23.404;2023-03-14T15:48:54;95040.31;;;16.20;35.24
18167;BME280;9208;42.688;23.404;2023-03-14T15:51:19;95037.25;;;16.05;35.10
18167;BME280;9208;42.688;23.404;2023-03-14T15:53:45;95038.34;;;15.96;35.25
18167;BME280;9208;42.688;23.404;2023-03-14T15:56:16;95032.69;;;15.89;35.18
18167;BME280;9208;42.688;23.404;2023-03-14T15:58:43;95032.59;;;15.76;35.18
18167;BME280;9208;42.688;23.404;2023-03-14T16:01:12;95041.13;;;15.54;34.99
18167;BME280;9208;42.688;23.404;2023-03-14T16:03:37;95027.03;;;15.33;35.25
18167;BME280;9208;42.688;23.404;2023-03-14T16:06:03;95023.72;;;14.87;36.24
18167;BME280;9208;42.688;23.404;2023-03-14T16:08:29;95007.78;;;14.45;36.87
18167;BME280;9208;42.688;23.404;2023-03-14T16:10:56;94989.94;;;14.11;37.81
18167;BME280;9208;42.688;23.404;2023-03-14T16:13:22;94985.88;;;13.82;38.50
18167;BME280;9208;42.688;23.404;2023-03-14T16:18:20;94965.88;;;13.25;39.42
18167;BME280;9208;42.688;23.404;2023-03-14T16:21:00;94962.94;;;13.06;39.77
18167;BME280;9208;42.688;23.404;2023-03-14T16:23:27;94951.97;;;12.90;40.21
18167;BME280;9208;42.688;23.404;2023-03-14T16:25:53;94948.72;;;12.69;40.52
18167;BME280;9208;42.688;23.404;2023-03-14T16:28:20;94949.75;;;12.61;40.65
18167;BME280;9208;42.688;23.404;2023-03-14T16:30:45;94946.53;;;12.46;41.18
18167;BME280;9208;42.688;23.404;2023-03-14T16:33:12;94939.06;;;12.35;42.25
18167;BME280;9208;42.688;23.404;2023-03-14T16:35:38;94932.81;;;12.24;42.32
18167;BME280;9208;42.688;23.404;2023-03-14T16:38:04;94931.56;;;12.19;42.07
18167;BME280;9208;42.688;23.404;2023-03-14T16:40:30;94920.56;;;12.08;42.83
18167;BME280;9208;42.688;23.404;2023-03-14T16:42:56;94918.31;;;12.07;43.16
18167;BME280;9208;42.688;23.404;2023-03-14T16:45:21;94916.06;;;12.05;43.42
18167;BME280;9208;42.688;23.404;2023-03-14T16:47:47;94906.84;;;11.92;43.64
18167;BME280;9208;42.688;23.404;2023-03-14T16:50:12;94910.84;;;11.85;44.20
18167;BME280;9208;42.688;23.404;2023-03-14T16:52:37;94904.59;;;11.74;44.48
18167;BME280;9208;42.688;23.404;2023-03-14T16:55:03;94907.06;;;11.61;45.24
18167;BME280;9208;42.688;23.404;2023-03-14T16:57:30;94897.78;;;11.53;45.37
18167;BME280;9208;42.688;23.404;2023-03-14T16:59:55;94893.28;;;11.39;46.02
18167;BME280;9208;42.688;23.404;2023-03-14T17:02:21;94880.50;;;11.30;46.16
18167;BME280;9208;42.688;23.404;2023-03-14T17:04:46;94874.03;;;11.28;46.11
18167;BME280;9208;42.688;23.404;2023-03-14T17:07:12;94881.47;;;11.11;46.48
18167;BME280;9208;42.688;23.404;2023-03-14T17:09:37;94871.72;;;10.99;46.48
18167;BME280;9208;42.688;23.404;2023-03-14T17:12:03;94863.50;;;10.99;46.93
18167;BME280;9208;42.688;23.404;2023-03-14T17:14:29;94869.97;;;11.01;46.65
18167;BME280;9208;42.688;23.404;2023-03-14T17:16:54;94861.97;;;10.92;46.93
18167;BME280;9208;42.688;23.404;2023-03-14T17:19:20;94853.72;;;10.81;47.09
18167;BME280;9208;42.688;23.404;2023-03-14T17:21:45;94854.16;;;10.69;47.90
18167;BME280;9208;42.688;23.404;2023-03-14T17:24:11;94848.88;;;10.60;47.80
18167;BME280;9208;42.688;23.404;2023-03-14T17:26:36;94839.38;;;10.50;48.26
18167;BME280;9208;42.688;23.404;2023-03-14T17:29:02;94834.84;;;10.41;48.46